Alta, Illinois
Current Conditions -  °F | °C
As of 5:54 PM on Friday 24 Oct 2014 (Local Time) from KPIA Reporting Station
Clear Clear  
Wind Chill: 63°   Ceiling: Unl
Heat Index: 63°   Visibility: 10mi
Dew Point: 51°   Wind: 5mph
Humidity: 65%   Direction: 130°SE
Pressure: 29.97"   Gusts: NA
Location:  40.7792°N, 89.6377°W
Report Text: KPIA 242254Z 13004KT 10SM CLR 17/11 A2997 RMK AO2 SLP149 T01720106
Loading
Personal Weather Stations






























Interactive Weather Map
Tropical Storm Tracking
New forecast layout! Learn more

10-Day Weather Forecast

Advertisements
Track Severe Weather on mobile